createdAt,value
2019-01-06T00:00:34.103Z,2.70
2019-01-06T00:03:21.172Z,2.60
2019-01-06T00:06:08.152Z,2.50
2019-01-06T00:08:54.775Z,2.60
2019-01-06T00:11:39.438Z,2.50
2019-01-06T00:14:39.818Z,2.50
2019-01-06T00:17:23.104Z,2.40
2019-01-06T00:20:14.002Z,2.40
2019-01-06T00:23:11.243Z,2.40
2019-01-06T00:25:53.096Z,2.40
2019-01-06T00:28:44.868Z,2.30
2019-01-06T00:31:31.872Z,2.30
2019-01-06T00:34:22.491Z,2.20
2019-01-06T00:37:11.728Z,2.20
2019-01-06T00:39:58.995Z,2.20
2019-01-06T00:42:56.069Z,2.20
2019-01-06T00:45:36.888Z,2.20
2019-01-06T00:48:23.890Z,2.20
2019-01-06T00:51:12.260Z,2.00
2019-01-06T00:53:59.160Z,2.00
2019-01-06T00:56:40.510Z,1.90
2019-01-06T00:59:18.987Z,1.80
2019-01-06T01:02:08.866Z,1.80
2019-01-06T01:05:02.424Z,1.80
2019-01-06T01:07:43.455Z,1.80
2019-01-06T01:10:27.170Z,1.80
2019-01-06T01:13:14.232Z,1.80
2019-01-06T01:16:01.224Z,1.80
2019-01-06T01:18:41.304Z,1.70
2019-01-06T01:21:28.235Z,1.70
2019-01-06T01:24:14.939Z,1.70
2019-01-06T01:27:02.154Z,1.70
2019-01-06T01:29:49.160Z,1.70
2019-01-06T01:32:49.727Z,1.80
2019-01-06T01:35:33.427Z,1.80
2019-01-06T01:38:20.318Z,1.90
2019-01-06T01:41:17.338Z,2.00
2019-01-06T01:44:11.154Z,2.00
2019-01-06T01:47:01.091Z,2.00
2019-01-06T01:49:32.122Z,2.00
2019-01-06T01:52:19.748Z,2.10
2019-01-06T01:55:09.604Z,2.10
2019-01-06T01:57:57.589Z,2.10
2019-01-06T02:00:37.652Z,2.10
2019-01-06T02:03:25.672Z,2.10
2019-01-06T02:06:12.420Z,2.00
2019-01-06T02:08:53.261Z,2.00
2019-01-06T02:11:51.070Z,2.10
2019-01-06T02:14:30.778Z,2.10
2019-01-06T02:17:19.275Z,2.10
2019-01-06T02:20:03.761Z,2.10
2019-01-06T02:22:50.678Z,2.10
2019-01-06T02:25:36.855Z,2.20
2019-01-06T02:28:23.964Z,2.20
2019-01-06T02:31:10.827Z,2.20
2019-01-06T02:34:10.936Z,2.20
2019-01-06T02:36:58.983Z,2.20
2019-01-06T02:39:46.123Z,2.10
2019-01-06T02:42:33.173Z,2.10
2019-01-06T02:45:24.233Z,2.10
2019-01-06T02:48:12.353Z,2.10
2019-01-06T02:50:59.070Z,2.10
2019-01-06T02:53:46.928Z,2.20
2019-01-06T02:56:33.750Z,2.10
2019-01-06T02:59:20.926Z,2.10
2019-01-06T03:02:08.160Z,2.10
2019-01-06T03:04:55.143Z,2.10
2019-01-06T03:07:42.123Z,2.10
2019-01-06T03:10:29.489Z,2.10
2019-01-06T03:13:23.473Z,2.10
2019-01-06T03:16:10.218Z,2.10
2019-01-06T03:18:57.440Z,2.10
2019-01-06T03:21:48.535Z,2.10
2019-01-06T03:24:42.596Z,2.10
2019-01-06T03:27:25.143Z,2.10
2019-01-06T03:30:31.680Z,2.10
2019-01-06T03:33:14.436Z,2.10
2019-01-06T03:36:05.636Z,2.10
2019-01-06T03:38:53.489Z,2.10
2019-01-06T03:41:40.358Z,2.10
2019-01-06T03:44:29.134Z,2.10
2019-01-06T03:47:13.906Z,2.10
2019-01-06T03:49:56.635Z,2.10
2019-01-06T03:52:59.917Z,2.10
2019-01-06T03:55:53.847Z,2.10
2019-01-06T03:58:51.911Z,2.10
2019-01-06T04:01:31.407Z,2.20
2019-01-06T04:04:22.700Z,2.10
2019-01-06T04:07:16.459Z,2.20
2019-01-06T04:10:05.643Z,2.20
2019-01-06T04:12:52.339Z,2.20
2019-01-06T04:15:39.801Z,2.20
2019-01-06T04:18:33.174Z,2.20
2019-01-06T04:21:12.038Z,2.30
2019-01-06T04:24:13.350Z,2.20
2019-01-06T04:27:13.979Z,2.30
2019-01-06T04:30:08.051Z,2.30
2019-01-06T04:33:00.419Z,2.30
2019-01-06T04:35:53.269Z,2.20
2019-01-06T04:38:39.899Z,2.20
2019-01-06T04:41:28.934Z,2.20
2019-01-06T04:44:17.020Z,2.20
2019-01-06T04:47:06.837Z,2.30
2019-01-06T04:49:54.163Z,2.20
2019-01-06T04:52:42.281Z,2.20
2019-01-06T04:55:29.127Z,2.30
2019-01-06T04:58:16.008Z,2.20
2019-01-06T05:00:58.479Z,2.20
2019-01-06T05:03:44.632Z,2.30
2019-01-06T05:06:41.262Z,2.30
2019-01-06T05:09:29.436Z,2.30
2019-01-06T05:12:26.509Z,2.30
2019-01-06T05:15:14.397Z,2.30
2019-01-06T05:18:01.255Z,2.40
2019-01-06T05:20:49.453Z,2.40
2019-01-06T05:23:55.762Z,2.40
2019-01-06T05:26:42.142Z,2.40
2019-01-06T05:29:28.860Z,2.40
2019-01-06T05:32:19.356Z,2.40
2019-01-06T05:35:05.600Z,2.40
2019-01-06T05:38:02.583Z,2.40
2019-01-06T05:40:51.963Z,2.50
2019-01-06T05:43:46.609Z,2.50
2019-01-06T05:46:33.300Z,2.50
2019-01-06T05:49:26.770Z,2.50
2019-01-06T05:52:24.935Z,2.50
2019-01-06T05:55:03.863Z,2.50
2019-01-06T05:57:52.191Z,2.40
2019-01-06T06:00:38.207Z,2.40
2019-01-06T06:03:18.868Z,2.40
2019-01-06T06:05:58.213Z,2.40
2019-01-06T06:08:39.910Z,2.40
2019-01-06T06:11:35.439Z,2.40
2019-01-06T06:14:34.312Z,2.40
2019-01-06T06:17:25.356Z,2.40
2019-01-06T06:20:13.368Z,2.30
2019-01-06T06:23:13.779Z,2.30
2019-01-06T06:26:00.596Z,2.30
2019-01-06T06:28:45.219Z,2.30
2019-01-06T06:31:34.528Z,2.40
2019-01-06T06:34:14.442Z,2.30
2019-01-06T06:36:56.060Z,2.30
2019-01-06T06:39:35.846Z,2.30
2019-01-06T06:42:22.685Z,2.30
2019-01-06T06:45:16.675Z,2.30
2019-01-06T06:48:09.046Z,2.30
2019-01-06T06:51:07.864Z,2.30
2019-01-06T06:53:55.683Z,2.30
2019-01-06T06:56:52.875Z,2.30
2019-01-06T06:59:50.296Z,2.30
2019-01-06T07:03:19.854Z,2.30
2019-01-06T07:06:06.532Z,2.30
2019-01-06T07:08:49.523Z,2.30
2019-01-06T07:11:36.867Z,2.30
2019-01-06T07:14:23.861Z,2.30
2019-01-06T07:17:51.957Z,2.30
2019-01-06T07:20:40.050Z,2.40
2019-01-06T07:23:26.797Z,2.40
2019-01-06T07:26:14.166Z,2.40
2019-01-06T07:28:56.295Z,2.40
2019-01-06T07:31:47.251Z,2.40
2019-01-06T07:34:29.759Z,2.30
2019-01-06T07:37:16.483Z,2.30
2019-01-06T07:40:14.356Z,2.30
2019-01-06T07:43:01.283Z,2.30
2019-01-06T07:45:50.169Z,2.30
2019-01-06T07:48:32.914Z,2.30
2019-01-06T07:51:14.326Z,2.30
2019-01-06T07:53:57.848Z,2.40
2019-01-06T07:56:58.260Z,2.40
2019-01-06T07:59:52.306Z,2.30
2019-01-06T08:02:55.454Z,2.30
2019-01-06T08:05:42.235Z,2.30
2019-01-06T08:08:37.208Z,2.30
2019-01-06T08:11:22.044Z,2.30
2019-01-06T08:14:08.648Z,2.40
2019-01-06T08:16:59.776Z,2.40
2019-01-06T08:19:41.510Z,2.40
2019-01-06T08:22:42.063Z,2.40
2019-01-06T08:25:38.774Z,2.40
2019-01-06T08:28:26.823Z,2.40
2019-01-06T08:31:09.855Z,2.40
2019-01-06T08:33:49.107Z,2.40
2019-01-06T08:36:36.263Z,2.50
2019-01-06T08:39:18.348Z,2.50
2019-01-06T08:42:15.643Z,2.50
2019-01-06T08:45:00.779Z,2.50
2019-01-06T08:47:45.643Z,2.50
2019-01-06T08:50:31.495Z,2.50
2019-01-06T08:53:19.860Z,2.50
2019-01-06T08:56:05.439Z,2.60
2019-01-06T08:58:44.836Z,2.60
2019-01-06T09:01:38.749Z,2.70
2019-01-06T09:04:31.359Z,2.80
2019-01-06T09:07:19.619Z,2.80
2019-01-06T09:10:16.787Z,3.00
2019-01-06T09:13:13.648Z,3.10
2019-01-06T09:16:09.374Z,3.00
2019-01-06T09:19:06.228Z,2.90
2019-01-06T09:21:54.245Z,2.80
2019-01-06T09:24:51.019Z,2.80
2019-01-06T09:27:45.228Z,2.80
2019-01-06T09:30:32.815Z,2.80
2019-01-06T09:33:14.668Z,2.80
2019-01-06T09:36:02.803Z,2.70
2019-01-06T09:38:48.944Z,2.70
2019-01-06T09:41:43.374Z,2.70
2019-01-06T09:44:39.362Z,2.70
2019-01-06T09:47:35.534Z,2.70
2019-01-06T09:50:20.063Z,2.70
2019-01-06T09:53:12.637Z,2.50
2019-01-06T09:56:03.636Z,2.50
2019-01-06T09:58:45.492Z,2.50
2019-01-06T10:01:29.082Z,2.50
2019-01-06T10:04:15.740Z,2.50
2019-01-06T10:07:03.120Z,2.50
2019-01-06T10:09:58.047Z,2.50
2019-01-06T10:12:55.347Z,2.50
2019-01-06T10:15:42.228Z,2.60
2019-01-06T10:18:29.477Z,2.70
2019-01-06T10:21:16.608Z,2.80
2019-01-06T10:24:03.699Z,2.90
2019-01-06T10:26:57.822Z,2.90
2019-01-06T10:29:55.589Z,2.90
2019-01-06T10:32:44.660Z,2.80
2019-01-06T10:35:46.092Z,2.60
2019-01-06T10:38:33.202Z,2.60
2019-01-06T10:41:20.030Z,2.60
2019-01-06T10:44:09.517Z,2.60
2019-01-06T10:46:57.450Z,2.60
2019-01-06T10:49:54.587Z,2.60
2019-01-06T10:52:41.154Z,2.80
2019-01-06T10:55:31.474Z,2.70
2019-01-06T10:58:18.285Z,2.70
2019-01-06T11:01:06.757Z,2.80
2019-01-06T11:03:53.824Z,2.80
2019-01-06T11:06:40.857Z,2.70
2019-01-06T11:09:32.175Z,2.40
2019-01-06T11:12:19.203Z,2.50
2019-01-06T11:15:19.637Z,2.50
2019-01-06T11:18:13.807Z,2.40
2019-01-06T11:21:02.107Z,2.30
2019-01-06T11:24:03.066Z,2.40
2019-01-06T11:26:49.736Z,2.40
2019-01-06T11:29:37.763Z,2.30
2019-01-06T11:32:41.359Z,2.40
2019-01-06T11:35:35.895Z,2.40
2019-01-06T11:38:18.234Z,2.50
2019-01-06T11:41:18.731Z,2.50
2019-01-06T11:44:25.226Z,2.50
2019-01-06T11:47:12.683Z,2.60
2019-01-06T11:50:10.151Z,2.50
2019-01-06T11:52:59.132Z,2.50
2019-01-06T11:55:52.552Z,2.60
2019-01-06T12:04:12.231Z,2.80
2019-01-06T12:06:58.997Z,2.90
2019-01-06T12:09:46.247Z,3.40
2019-01-06T12:12:43.504Z,3.80
2019-01-06T12:15:27.250Z,3.90
2019-01-06T12:18:14.095Z,3.70
2019-01-06T12:20:57.395Z,3.30
2019-01-06T12:23:47.890Z,3.20
2019-01-06T12:26:44.944Z,3.10
2019-01-06T12:29:32.053Z,2.80
2019-01-06T12:32:17.935Z,2.60
2019-01-06T12:35:04.722Z,2.50
2019-01-06T12:37:51.318Z,2.60
2019-01-06T12:40:42.807Z,2.80
2019-01-06T12:43:39.814Z,2.90
2019-01-06T12:46:27.438Z,2.60
2019-01-06T12:49:14.596Z,2.80
2019-01-06T12:52:01.588Z,2.70
2019-01-06T12:54:41.729Z,2.60
2019-01-06T12:57:28.543Z,2.70
2019-01-06T13:00:16.471Z,2.80
2019-01-06T13:03:02.356Z,2.70
2019-01-06T13:05:49.185Z,2.70
2019-01-06T13:08:35.784Z,2.80
2019-01-06T13:11:29.996Z,2.80
2019-01-06T13:14:21.191Z,2.80
2019-01-06T13:17:05.795Z,2.90
2019-01-06T13:19:52.510Z,2.80
2019-01-06T13:22:39.154Z,2.80
2019-01-06T13:25:28.975Z,2.80
2019-01-06T13:28:15.571Z,2.80
2019-01-06T13:31:02.599Z,2.90
2019-01-06T13:33:53.377Z,2.70
2019-01-06T13:36:38.088Z,2.70
2019-01-06T13:39:20.676Z,2.70
2019-01-06T13:42:11.583Z,2.70
2019-01-06T13:44:59.634Z,2.90
2019-01-06T13:47:55.014Z,2.80
2019-01-06T13:50:41.799Z,2.70
2019-01-06T13:53:37.733Z,2.70
2019-01-06T13:56:40.676Z,2.60
2019-01-06T13:59:27.421Z,2.50
2019-01-06T14:02:15.272Z,2.50
2019-01-06T14:05:03.287Z,2.40
2019-01-06T14:07:45.924Z,2.30
2019-01-06T14:10:34.228Z,2.40
2019-01-06T14:13:25.293Z,2.20
2019-01-06T14:16:16.506Z,2.30
2019-01-06T14:19:04.163Z,2.30
2019-01-06T14:21:46.567Z,2.30
2019-01-06T14:24:34.100Z,2.30
2019-01-06T14:27:20.892Z,2.30
2019-01-06T14:30:07.706Z,2.20
2019-01-06T14:33:03.347Z,2.10
2019-01-06T14:35:52.718Z,2.20
2019-01-06T14:38:40.088Z,2.10
2019-01-06T14:41:21.153Z,2.10
2019-01-06T14:44:07.781Z,2.10
2019-01-06T14:46:50.211Z,2.10
2019-01-06T14:49:46.994Z,2.20
2019-01-06T14:52:46.835Z,2.20
2019-01-06T14:55:33.804Z,2.20
2019-01-06T14:58:11.260Z,2.20
2019-01-06T15:00:56.097Z,2.10
2019-01-06T15:03:59.485Z,2.10
2019-01-06T15:06:52.443Z,2.20
2019-01-06T15:09:37.400Z,2.20
2019-01-06T15:12:31.530Z,2.20
2019-01-06T15:15:18.876Z,2.20
2019-01-06T15:18:05.735Z,2.20
2019-01-06T15:20:52.585Z,2.20
2019-01-06T15:23:39.987Z,2.10
2019-01-06T15:26:25.957Z,2.10
2019-01-06T15:29:24.841Z,2.10
2019-01-06T15:32:10.294Z,2.10
2019-01-06T15:35:07.308Z,2.20
2019-01-06T15:38:01.570Z,2.20
2019-01-06T15:41:05.820Z,2.10
2019-01-06T15:44:00.295Z,2.10
2019-01-06T15:46:51.792Z,2.20
2019-01-06T15:49:28.440Z,2.20
2019-01-06T15:52:21.501Z,2.20
2019-01-06T15:55:03.483Z,2.20
2019-01-06T15:58:11.144Z,2.20
2019-01-06T16:00:53.822Z,2.20
2019-01-06T16:03:39.947Z,2.20
2019-01-06T16:06:33.743Z,2.20
2019-01-06T16:09:27.143Z,2.20
2019-01-06T16:12:17.781Z,2.20
2019-01-06T16:15:03.546Z,2.20
2019-01-06T16:17:57.483Z,2.20
2019-01-06T16:20:39.901Z,2.20
2019-01-06T16:23:22.110Z,2.30
2019-01-06T16:26:00.873Z,2.30
2019-01-06T16:28:47.543Z,2.30
2019-01-06T16:31:47.755Z,2.20
2019-01-06T16:34:39.286Z,2.30
2019-01-06T16:37:26.715Z,2.70
2019-01-06T16:40:14.160Z,2.80
2019-01-06T16:43:02.617Z,2.90
2019-01-06T16:45:50.573Z,2.90
2019-01-06T16:48:57.805Z,2.90
2019-01-06T16:52:01.367Z,2.70
2019-01-06T16:54:51.754Z,2.60
2019-01-06T16:57:36.237Z,2.50
2019-01-06T17:00:25.298Z,2.50
2019-01-06T17:03:31.957Z,2.50
2019-01-06T17:06:24.984Z,2.50
2019-01-06T17:09:11.947Z,2.50
2019-01-06T17:12:07.822Z,2.50
2019-01-06T17:14:52.061Z,2.50
2019-01-06T17:17:38.855Z,2.50
2019-01-06T17:20:25.284Z,2.50
2019-01-06T17:23:13.723Z,2.50
2019-01-06T17:26:03.955Z,2.50
2019-01-06T17:28:50.123Z,2.60
2019-01-06T17:31:36.679Z,2.50
2019-01-06T17:34:19.306Z,2.60
2019-01-06T17:37:05.348Z,2.60
2019-01-06T17:39:56.572Z,2.60
2019-01-06T17:42:39.516Z,2.70
2019-01-06T17:45:25.928Z,2.70
2019-01-06T17:48:24.059Z,2.70
2019-01-06T17:51:09.467Z,2.70
2019-01-06T17:53:50.789Z,2.70
2019-01-06T17:56:31.120Z,2.70
2019-01-06T17:59:18.397Z,2.80
2019-01-06T18:02:15.357Z,2.80
2019-01-06T18:05:02.150Z,2.80
2019-01-06T18:07:48.986Z,2.70
2019-01-06T18:10:36.311Z,2.70
2019-01-06T18:13:23.448Z,2.70
2019-01-06T18:16:11.530Z,2.70
2019-01-06T18:19:08.735Z,2.80
2019-01-06T18:21:56.998Z,2.80
2019-01-06T18:24:44.461Z,2.70
2019-01-06T18:27:31.427Z,2.70
2019-01-06T18:30:19.346Z,2.70
2019-01-06T18:33:06.056Z,2.70
2019-01-06T18:35:49.398Z,2.70
2019-01-06T18:38:36.959Z,2.70
2019-01-06T18:41:24.151Z,2.70
2019-01-06T18:44:26.150Z,2.70
2019-01-06T18:47:12.735Z,2.70
2019-01-06T18:49:54.094Z,2.60
2019-01-06T18:52:41.304Z,2.60
2019-01-06T18:55:42.021Z,2.60
2019-01-06T18:58:29.463Z,2.60
2019-01-06T19:01:20.113Z,2.50
2019-01-06T19:04:23.903Z,2.50
2019-01-06T19:07:24.447Z,2.50
2019-01-06T19:10:24.626Z,2.40
2019-01-06T19:13:28.477Z,2.40
2019-01-06T19:16:15.097Z,2.40
2019-01-06T19:19:02.055Z,2.40
2019-01-06T19:21:45.647Z,2.40
2019-01-06T19:24:45.415Z,2.30
2019-01-06T19:27:42.640Z,2.30
2019-01-06T19:30:29.692Z,2.30
2019-01-06T19:33:16.308Z,2.30
2019-01-06T19:36:20.150Z,2.30
2019-01-06T19:39:07.293Z,2.30
2019-01-06T19:42:02.011Z,2.40
2019-01-06T19:44:50.927Z,2.40
2019-01-06T19:47:38.500Z,2.50
2019-01-06T19:50:35.718Z,2.50
2019-01-06T19:53:15.565Z,2.50
2019-01-06T19:56:22.520Z,2.50
2019-01-06T19:59:09.648Z,2.50
2019-01-06T20:01:53.142Z,2.50
2019-01-06T20:04:47.279Z,2.50
2019-01-06T20:07:46.338Z,2.60
2019-01-06T20:10:43.899Z,2.60
2019-01-06T20:13:39.425Z,2.60
2019-01-06T20:16:27.480Z,2.60
2019-01-06T20:19:14.967Z,2.50
2019-01-06T20:22:10.484Z,2.40
2019-01-06T20:25:07.352Z,2.40
2019-01-06T20:27:54.236Z,2.30
2019-01-06T20:30:42.670Z,2.30
2019-01-06T20:33:29.655Z,2.30
2019-01-06T20:36:22.399Z,2.30
2019-01-06T20:39:20.132Z,2.30
2019-01-06T20:42:07.662Z,2.30
2019-01-06T20:44:58.928Z,2.30
2019-01-06T20:47:46.363Z,2.30
2019-01-06T20:50:26.977Z,2.30
2019-01-06T20:53:14.423Z,2.30
2019-01-06T20:56:02.671Z,2.30
2019-01-06T20:58:49.880Z,2.40
2019-01-06T21:01:40.999Z,2.40
2019-01-06T21:04:31.973Z,2.40
2019-01-06T21:07:18.711Z,2.30
2019-01-06T21:09:59.845Z,2.30
2019-01-06T21:12:47.527Z,2.40
2019-01-06T21:15:41.383Z,2.40
2019-01-06T21:18:47.632Z,2.40
2019-01-06T21:21:44.913Z,2.40
2019-01-06T21:24:31.564Z,2.40
2019-01-06T21:27:20.434Z,2.40
2019-01-06T21:30:04.917Z,2.40
2019-01-06T21:32:56.723Z,2.30
2019-01-06T21:35:43.605Z,2.30
2019-01-06T21:38:36.663Z,2.40
2019-01-06T21:41:23.679Z,2.30
2019-01-06T21:44:10.400Z,2.40
2019-01-06T21:46:57.718Z,2.30
2019-01-06T21:49:58.249Z,2.30
2019-01-06T21:52:36.514Z,2.40
2019-01-06T21:55:24.061Z,2.40
2019-01-06T21:58:16.119Z,2.30
2019-01-06T22:01:13.385Z,2.40
2019-01-06T22:04:07.850Z,2.40
2019-01-06T22:06:55.442Z,2.40
2019-01-06T22:10:02.500Z,2.40
2019-01-06T22:12:59.661Z,2.30
2019-01-06T22:15:49.359Z,2.30
2019-01-06T22:18:36.079Z,2.30
2019-01-06T22:21:33.773Z,2.30
2019-01-06T22:24:14.963Z,2.30
2019-01-06T22:27:04.261Z,2.30
2019-01-06T22:29:55.106Z,2.40
2019-01-06T22:32:43.656Z,2.40
2019-01-06T22:35:47.075Z,2.40
2019-01-06T22:38:33.952Z,2.50
2019-01-06T22:41:26.805Z,2.40
2019-01-06T22:44:13.913Z,2.40
2019-01-06T22:47:03.310Z,2.40
2019-01-06T22:49:46.211Z,2.40
2019-01-06T22:52:43.477Z,2.40
2019-01-06T22:55:40.478Z,2.40
2019-01-06T22:58:31.473Z,2.40
2019-01-06T23:01:25.662Z,2.40
2019-01-06T23:04:05.314Z,2.40
2019-01-06T23:06:57.036Z,2.40
2019-01-06T23:09:44.071Z,2.40
2019-01-06T23:12:31.255Z,2.40
2019-01-06T23:15:28.074Z,2.40
2019-01-06T23:18:23.880Z,2.50
2019-01-06T23:21:14.729Z,2.40
2019-01-06T23:24:11.646Z,2.40
2019-01-06T23:26:58.430Z,2.50
2019-01-06T23:29:44.994Z,2.50
2019-01-06T23:32:36.015Z,2.40
2019-01-06T23:35:24.017Z,2.50
2019-01-06T23:38:04.916Z,2.50
2019-01-06T23:40:59.171Z,2.50
2019-01-06T23:43:47.647Z,2.50
2019-01-06T23:46:30.753Z,2.50
2019-01-06T23:49:17.610Z,2.60
2019-01-06T23:52:04.749Z,2.60
2019-01-06T23:54:51.865Z,2.50
2019-01-06T23:57:38.619Z,2.60
